sensor_id;sensor_type;location;lat;lon;timestamp;P1;durP1;ratioP1;P2;durP2;ratioP2
12603;SDS011;6367;52.508;13.284;2022-12-10T00:01:48;19.10;;;11.93;;
12603;SDS011;6367;52.508;13.284;2022-12-10T00:04:15;17.90;;;12.00;;
12603;SDS011;6367;52.508;13.284;2022-12-10T00:06:41;14.67;;;11.00;;
12603;SDS011;6367;52.508;13.284;2022-12-10T00:09:09;16.10;;;10.53;;
12603;SDS011;6367;52.508;13.284;2022-12-10T00:11:37;17.53;;;11.10;;
12603;SDS011;6367;52.508;13.284;2022-12-10T00:14:03;17.67;;;11.47;;
12603;SDS011;6367;52.508;13.284;2022-12-10T00:16:29;15.87;;;11.37;;
12603;SDS011;6367;52.508;13.284;2022-12-10T00:18:58;17.57;;;10.53;;
12603;SDS011;6367;52.508;13.284;2022-12-10T00:21:25;18.00;;;11.40;;
12603;SDS011;6367;52.508;13.284;2022-12-10T00:23:53;19.27;;;11.63;;
12603;SDS011;6367;52.508;13.284;2022-12-10T00:26:25;15.10;;;11.73;;
12603;SDS011;6367;52.508;13.284;2022-12-10T00:28:53;18.70;;;11.70;;
12603;SDS011;6367;52.508;13.284;2022-12-10T00:31:22;20.97;;;12.73;;
12603;SDS011;6367;52.508;13.284;2022-12-10T00:33:50;17.77;;;12.17;;
12603;SDS011;6367;52.508;13.284;2022-12-10T00:36:20;19.33;;;13.13;;
12603;SDS011;6367;52.508;13.284;2022-12-10T00:38:51;18.20;;;12.80;;
12603;SDS011;6367;52.508;13.284;2022-12-10T00:41:17;21.10;;;12.37;;
12603;SDS011;6367;52.508;13.284;2022-12-10T00:43:44;19.20;;;13.00;;
12603;SDS011;6367;52.508;13.284;2022-12-10T00:46:10;18.10;;;11.47;;
12603;SDS011;6367;52.508;13.284;2022-12-10T00:48:36;18.70;;;12.40;;
12603;SDS011;6367;52.508;13.284;2022-12-10T00:53:35;19.67;;;12.63;;
12603;SDS011;6367;52.508;13.284;2022-12-10T00:56:02;19.30;;;11.73;;
12603;SDS011;6367;52.508;13.284;2022-12-10T00:58:29;18.27;;;12.90;;
12603;SDS011;6367;52.508;13.284;2022-12-10T01:03:54;19.50;;;12.50;;
12603;SDS011;6367;52.508;13.284;2022-12-10T01:06:22;16.57;;;10.90;;
12603;SDS011;6367;52.508;13.284;2022-12-10T01:08:53;18.70;;;11.87;;
12603;SDS011;6367;52.508;13.284;2022-12-10T01:11:22;18.80;;;11.70;;
12603;SDS011;6367;52.508;13.284;2022-12-10T01:13:51;20.03;;;12.73;;
12603;SDS011;6367;52.508;13.284;2022-12-10T01:16:18;16.87;;;11.70;;
12603;SDS011;6367;52.508;13.284;2022-12-10T01:18:45;18.10;;;12.00;;
12603;SDS011;6367;52.508;13.284;2022-12-10T01:21:11;15.30;;;10.23;;
12603;SDS011;6367;52.508;13.284;2022-12-10T01:23:40;17.47;;;11.77;;
12603;SDS011;6367;52.508;13.284;2022-12-10T01:26:08;16.03;;;10.10;;
12603;SDS011;6367;52.508;13.284;2022-12-10T01:28:36;18.50;;;11.40;;
12603;SDS011;6367;52.508;13.284;2022-12-10T01:31:03;18.80;;;11.37;;
12603;SDS011;6367;52.508;13.284;2022-12-10T01:33:31;17.53;;;10.57;;
12603;SDS011;6367;52.508;13.284;2022-12-10T01:36:01;16.73;;;11.30;;
12603;SDS011;6367;52.508;13.284;2022-12-10T01:38:28;19.97;;;12.40;;
12603;SDS011;6367;52.508;13.284;2022-12-10T01:40:54;18.07;;;12.37;;
12603;SDS011;6367;52.508;13.284;2022-12-10T01:43:19;16.93;;;10.90;;
12603;SDS011;6367;52.508;13.284;2022-12-10T01:45:45;18.50;;;12.27;;
12603;SDS011;6367;52.508;13.284;2022-12-10T01:48:11;20.30;;;12.40;;
12603;SDS011;6367;52.508;13.284;2022-12-10T01:50:36;17.90;;;12.13;;
12603;SDS011;6367;52.508;13.284;2022-12-10T01:53:03;17.23;;;11.50;;
12603;SDS011;6367;52.508;13.284;2022-12-10T01:55:43;20.47;;;11.80;;
12603;SDS011;6367;52.508;13.284;2022-12-10T01:58:10;18.60;;;12.53;;
12603;SDS011;6367;52.508;13.284;2022-12-10T02:00:38;18.83;;;13.10;;
12603;SDS011;6367;52.508;13.284;2022-12-10T02:03:12;18.23;;;12.40;;
12603;SDS011;6367;52.508;13.284;2022-12-10T02:05:41;21.83;;;13.23;;
12603;SDS011;6367;52.508;13.284;2022-12-10T02:14:08;15.73;;;11.10;;
12603;SDS011;6367;52.508;13.284;2022-12-10T02:16:42;15.63;;;11.30;;
12603;SDS011;6367;52.508;13.284;2022-12-10T02:22:22;15.13;;;9.87;;
12603;SDS011;6367;52.508;13.284;2022-12-10T02:24:53;18.60;;;12.20;;
12603;SDS011;6367;52.508;13.284;2022-12-10T02:27:33;16.43;;;11.93;;
12603;SDS011;6367;52.508;13.284;2022-12-10T02:30:07;16.67;;;11.13;;
12603;SDS011;6367;52.508;13.284;2022-12-10T02:32:35;17.63;;;11.30;;
12603;SDS011;6367;52.508;13.284;2022-12-10T02:35:05;16.97;;;11.17;;
12603;SDS011;6367;52.508;13.284;2022-12-10T02:37:40;16.63;;;11.13;;
12603;SDS011;6367;52.508;13.284;2022-12-10T02:40:15;16.10;;;10.73;;
12603;SDS011;6367;52.508;13.284;2022-12-10T02:42:46;13.80;;;9.90;;
12603;SDS011;6367;52.508;13.284;2022-12-10T02:45:15;16.47;;;11.67;;
12603;SDS011;6367;52.508;13.284;2022-12-10T02:47:41;16.30;;;10.93;;
12603;SDS011;6367;52.508;13.284;2022-12-10T02:50:08;17.83;;;12.30;;
12603;SDS011;6367;52.508;13.284;2022-12-10T02:52:36;17.77;;;12.80;;
12603;SDS011;6367;52.508;13.284;2022-12-10T02:55:02;17.53;;;12.67;;
12603;SDS011;6367;52.508;13.284;2022-12-10T03:00:26;15.67;;;10.93;;
12603;SDS011;6367;52.508;13.284;2022-12-10T03:06:04;15.30;;;11.13;;
12603;SDS011;6367;52.508;13.284;2022-12-10T03:08:52;17.07;;;11.13;;
12603;SDS011;6367;52.508;13.284;2022-12-10T03:11:24;17.53;;;11.10;;
12603;SDS011;6367;52.508;13.284;2022-12-10T03:14:00;18.03;;;11.40;;
12603;SDS011;6367;52.508;13.284;2022-12-10T03:16:35;15.10;;;10.83;;
12603;SDS011;6367;52.508;13.284;2022-12-10T03:19:10;15.40;;;10.47;;
12603;SDS011;6367;52.508;13.284;2022-12-10T03:21:39;17.83;;;11.93;;
12603;SDS011;6367;52.508;13.284;2022-12-10T03:24:07;16.20;;;12.13;;
12603;SDS011;6367;52.508;13.284;2022-12-10T03:26:34;17.20;;;12.70;;
12603;SDS011;6367;52.508;13.284;2022-12-10T03:29:03;22.67;;;13.10;;
12603;SDS011;6367;52.508;13.284;2022-12-10T03:31:33;18.40;;;11.43;;
12603;SDS011;6367;52.508;13.284;2022-12-10T03:34:00;18.30;;;11.53;;
12603;SDS011;6367;52.508;13.284;2022-12-10T03:36:27;16.17;;;11.63;;
12603;SDS011;6367;52.508;13.284;2022-12-10T03:38:55;17.37;;;12.97;;
12603;SDS011;6367;52.508;13.284;2022-12-10T03:41:21;15.23;;;11.40;;
12603;SDS011;6367;52.508;13.284;2022-12-10T03:43:55;20.10;;;13.60;;
12603;SDS011;6367;52.508;13.284;2022-12-10T03:46:23;18.00;;;11.90;;
12603;SDS011;6367;52.508;13.284;2022-12-10T03:48:50;18.83;;;12.27;;
12603;SDS011;6367;52.508;13.284;2022-12-10T03:51:16;21.70;;;12.00;;
12603;SDS011;6367;52.508;13.284;2022-12-10T03:53:42;18.10;;;12.30;;
12603;SDS011;6367;52.508;13.284;2022-12-10T03:56:08;17.10;;;12.00;;
12603;SDS011;6367;52.508;13.284;2022-12-10T03:58:33;17.40;;;12.73;;
12603;SDS011;6367;52.508;13.284;2022-12-10T04:00:59;22.77;;;13.80;;
12603;SDS011;6367;52.508;13.284;2022-12-10T04:03:25;15.97;;;11.33;;
12603;SDS011;6367;52.508;13.284;2022-12-10T04:05:50;18.00;;;12.37;;
12603;SDS011;6367;52.508;13.284;2022-12-10T04:08:16;17.57;;;12.90;;
12603;SDS011;6367;52.508;13.284;2022-12-10T04:10:42;19.80;;;13.63;;
12603;SDS011;6367;52.508;13.284;2022-12-10T04:13:07;15.97;;;11.57;;
12603;SDS011;6367;52.508;13.284;2022-12-10T04:15:51;16.80;;;12.00;;
12603;SDS011;6367;52.508;13.284;2022-12-10T04:18:35;17.53;;;11.53;;
12603;SDS011;6367;52.508;13.284;2022-12-10T04:21:01;19.50;;;13.50;;
12603;SDS011;6367;52.508;13.284;2022-12-10T04:23:45;17.53;;;11.43;;
12603;SDS011;6367;52.508;13.284;2022-12-10T04:26:46;20.60;;;12.27;;
12603;SDS011;6367;52.508;13.284;2022-12-10T04:29:18;19.27;;;12.33;;
12603;SDS011;6367;52.508;13.284;2022-12-10T04:31:52;22.00;;;13.03;;
12603;SDS011;6367;52.508;13.284;2022-12-10T04:34:18;19.90;;;12.90;;
12603;SDS011;6367;52.508;13.284;2022-12-10T04:36:44;16.40;;;11.00;;
12603;SDS011;6367;52.508;13.284;2022-12-10T04:39:10;18.63;;;12.30;;
12603;SDS011;6367;52.508;13.284;2022-12-10T04:41:42;18.10;;;11.97;;
12603;SDS011;6367;52.508;13.284;2022-12-10T04:44:09;20.57;;;14.00;;
12603;SDS011;6367;52.508;13.284;2022-12-10T04:46:35;20.87;;;13.40;;
12603;SDS011;6367;52.508;13.284;2022-12-10T04:49:01;19.60;;;13.50;;
12603;SDS011;6367;52.508;13.284;2022-12-10T04:51:28;17.73;;;12.87;;
12603;SDS011;6367;52.508;13.284;2022-12-10T04:53:54;20.50;;;13.00;;
12603;SDS011;6367;52.508;13.284;2022-12-10T04:56:19;18.77;;;13.30;;
12603;SDS011;6367;52.508;13.284;2022-12-10T04:58:45;21.57;;;13.37;;
12603;SDS011;6367;52.508;13.284;2022-12-10T05:01:11;18.97;;;12.50;;
12603;SDS011;6367;52.508;13.284;2022-12-10T05:03:37;17.87;;;11.57;;
12603;SDS011;6367;52.508;13.284;2022-12-10T05:06:07;18.00;;;13.13;;
12603;SDS011;6367;52.508;13.284;2022-12-10T05:08:35;17.10;;;12.23;;
12603;SDS011;6367;52.508;13.284;2022-12-10T05:11:03;18.93;;;13.20;;
12603;SDS011;6367;52.508;13.284;2022-12-10T05:13:33;15.43;;;11.10;;
12603;SDS011;6367;52.508;13.284;2022-12-10T05:16:03;18.70;;;12.17;;
12603;SDS011;6367;52.508;13.284;2022-12-10T05:18:29;16.87;;;11.80;;
12603;SDS011;6367;52.508;13.284;2022-12-10T05:20:57;17.93;;;12.33;;
12603;SDS011;6367;52.508;13.284;2022-12-10T05:23:24;19.43;;;13.03;;
12603;SDS011;6367;52.508;13.284;2022-12-10T05:26:02;15.60;;;11.80;;
12603;SDS011;6367;52.508;13.284;2022-12-10T05:28:31;17.73;;;11.70;;
12603;SDS011;6367;52.508;13.284;2022-12-10T05:30:59;16.30;;;11.27;;
12603;SDS011;6367;52.508;13.284;2022-12-10T05:33:26;16.13;;;11.97;;
12603;SDS011;6367;52.508;13.284;2022-12-10T05:35:53;17.30;;;10.90;;
12603;SDS011;6367;52.508;13.284;2022-12-10T05:38:26;20.20;;;12.00;;
12603;SDS011;6367;52.508;13.284;2022-12-10T05:40:53;18.10;;;12.17;;
12603;SDS011;6367;52.508;13.284;2022-12-10T05:43:19;17.33;;;11.93;;
12603;SDS011;6367;52.508;13.284;2022-12-10T05:45:45;18.07;;;11.93;;
12603;SDS011;6367;52.508;13.284;2022-12-10T05:48:11;16.90;;;12.37;;
12603;SDS011;6367;52.508;13.284;2022-12-10T05:50:39;19.17;;;12.00;;
12603;SDS011;6367;52.508;13.284;2022-12-10T05:53:05;18.07;;;11.40;;
12603;SDS011;6367;52.508;13.284;2022-12-10T05:55:31;13.23;;;10.57;;
12603;SDS011;6367;52.508;13.284;2022-12-10T05:57:58;15.40;;;10.90;;
12603;SDS011;6367;52.508;13.284;2022-12-10T06:00:24;14.60;;;10.00;;
12603;SDS011;6367;52.508;13.284;2022-12-10T06:02:50;13.30;;;9.87;;
12603;SDS011;6367;52.508;13.284;2022-12-10T06:05:15;17.93;;;11.57;;
12603;SDS011;6367;52.508;13.284;2022-12-10T06:07:41;12.43;;;10.80;;
12603;SDS011;6367;52.508;13.284;2022-12-10T06:10:07;14.70;;;9.97;;
12603;SDS011;6367;52.508;13.284;2022-12-10T06:12:34;15.40;;;11.20;;
12603;SDS011;6367;52.508;13.284;2022-12-10T06:14:59;12.80;;;10.30;;
12603;SDS011;6367;52.508;13.284;2022-12-10T06:17:25;13.60;;;10.20;;
12603;SDS011;6367;52.508;13.284;2022-12-10T06:19:51;17.63;;;12.03;;
12603;SDS011;6367;52.508;13.284;2022-12-10T06:22:16;12.83;;;9.63;;
12603;SDS011;6367;52.508;13.284;2022-12-10T06:24:42;14.90;;;11.20;;
12603;SDS011;6367;52.508;13.284;2022-12-10T06:27:08;12.80;;;9.97;;
12603;SDS011;6367;52.508;13.284;2022-12-10T06:29:33;13.87;;;9.97;;
12603;SDS011;6367;52.508;13.284;2022-12-10T06:31:59;14.70;;;10.33;;
12603;SDS011;6367;52.508;13.284;2022-12-10T06:34:24;16.10;;;12.10;;
12603;SDS011;6367;52.508;13.284;2022-12-10T06:36:50;13.80;;;9.60;;
12603;SDS011;6367;52.508;13.284;2022-12-10T06:39:16;14.23;;;11.03;;
12603;SDS011;6367;52.508;13.284;2022-12-10T06:41:42;14.37;;;11.13;;
12603;SDS011;6367;52.508;13.284;2022-12-10T06:44:10;13.57;;;9.60;;
12603;SDS011;6367;52.508;13.284;2022-12-10T06:46:36;12.67;;;10.33;;
12603;SDS011;6367;52.508;13.284;2022-12-10T06:49:04;15.63;;;10.23;;
12603;SDS011;6367;52.508;13.284;2022-12-10T06:51:30;13.10;;;9.40;;
12603;SDS011;6367;52.508;13.284;2022-12-10T06:53:56;10.03;;;8.57;;
12603;SDS011;6367;52.508;13.284;2022-12-10T06:56:22;12.30;;;9.43;;
12603;SDS011;6367;52.508;13.284;2022-12-10T06:58:48;11.63;;;9.80;;
12603;SDS011;6367;52.508;13.284;2022-12-10T07:01:14;11.27;;;9.00;;
12603;SDS011;6367;52.508;13.284;2022-12-10T07:03:50;13.57;;;9.83;;
12603;SDS011;6367;52.508;13.284;2022-12-10T07:06:17;11.07;;;8.83;;
12603;SDS011;6367;52.508;13.284;2022-12-10T07:08:44;12.80;;;9.90;;
12603;SDS011;6367;52.508;13.284;2022-12-10T07:11:11;14.00;;;9.57;;
12603;SDS011;6367;52.508;13.284;2022-12-10T07:13:38;13.33;;;10.10;;
12603;SDS011;6367;52.508;13.284;2022-12-10T07:16:11;12.90;;;10.10;;
12603;SDS011;6367;52.508;13.284;2022-12-10T07:18:42;10.50;;;8.70;;
12603;SDS011;6367;52.508;13.284;2022-12-10T07:21:12;13.33;;;8.80;;
12603;SDS011;6367;52.508;13.284;2022-12-10T07:23:39;11.03;;;9.13;;
12603;SDS011;6367;52.508;13.284;2022-12-10T07:26:04;13.03;;;10.27;;
12603;SDS011;6367;52.508;13.284;2022-12-10T07:28:30;10.73;;;9.00;;
12603;SDS011;6367;52.508;13.284;2022-12-10T07:31:02;13.33;;;9.97;;
12603;SDS011;6367;52.508;13.284;2022-12-10T07:33:29;12.90;;;9.67;;
12603;SDS011;6367;52.508;13.284;2022-12-10T07:35:55;11.33;;;8.40;;
12603;SDS011;6367;52.508;13.284;2022-12-10T07:38:22;12.50;;;9.10;;
12603;SDS011;6367;52.508;13.284;2022-12-10T07:40:48;11.43;;;9.37;;
12603;SDS011;6367;52.508;13.284;2022-12-10T07:43:14;13.97;;;9.47;;
12603;SDS011;6367;52.508;13.284;2022-12-10T07:45:40;12.00;;;9.03;;
12603;SDS011;6367;52.508;13.284;2022-12-10T07:48:06;12.50;;;9.37;;
12603;SDS011;6367;52.508;13.284;2022-12-10T07:50:31;10.97;;;9.17;;
12603;SDS011;6367;52.508;13.284;2022-12-10T07:52:57;14.10;;;9.70;;
12603;SDS011;6367;52.508;13.284;2022-12-10T07:55:22;13.10;;;9.43;;
12603;SDS011;6367;52.508;13.284;2022-12-10T07:57:48;12.10;;;9.90;;
12603;SDS011;6367;52.508;13.284;2022-12-10T08:00:14;11.03;;;8.70;;
12603;SDS011;6367;52.508;13.284;2022-12-10T08:02:39;13.33;;;10.00;;
12603;SDS011;6367;52.508;13.284;2022-12-10T08:05:05;11.60;;;8.97;;
12603;SDS011;6367;52.508;13.284;2022-12-10T08:07:32;12.57;;;9.30;;
12603;SDS011;6367;52.508;13.284;2022-12-10T08:09:57;11.57;;;8.87;;
12603;SDS011;6367;52.508;13.284;2022-12-10T08:12:23;14.30;;;10.27;;
12603;SDS011;6367;52.508;13.284;2022-12-10T08:14:48;11.00;;;8.80;;
12603;SDS011;6367;52.508;13.284;2022-12-10T08:17:14;13.43;;;9.90;;
12603;SDS011;6367;52.508;13.284;2022-12-10T08:19:40;10.17;;;9.03;;
12603;SDS011;6367;52.508;13.284;2022-12-10T08:22:05;11.80;;;9.93;;
12603;SDS011;6367;52.508;13.284;2022-12-10T08:24:31;12.63;;;10.17;;
12603;SDS011;6367;52.508;13.284;2022-12-10T08:26:57;11.83;;;9.20;;
12603;SDS011;6367;52.508;13.284;2022-12-10T08:29:22;12.07;;;9.27;;
12603;SDS011;6367;52.508;13.284;2022-12-10T08:31:48;14.50;;;10.33;;
12603;SDS011;6367;52.508;13.284;2022-12-10T08:34:15;12.47;;;10.00;;
12603;SDS011;6367;52.508;13.284;2022-12-10T08:36:42;11.77;;;10.23;;
12603;SDS011;6367;52.508;13.284;2022-12-10T08:39:08;12.33;;;9.63;;
12603;SDS011;6367;52.508;13.284;2022-12-10T08:41:35;11.70;;;9.60;;
12603;SDS011;6367;52.508;13.284;2022-12-10T08:44:01;12.93;;;10.77;;
12603;SDS011;6367;52.508;13.284;2022-12-10T08:46:27;10.37;;;9.30;;
12603;SDS011;6367;52.508;13.284;2022-12-10T08:48:53;11.20;;;9.73;;
12603;SDS011;6367;52.508;13.284;2022-12-10T08:51:19;12.53;;;9.63;;
12603;SDS011;6367;52.508;13.284;2022-12-10T08:53:46;12.57;;;9.50;;
12603;SDS011;6367;52.508;13.284;2022-12-10T08:56:12;17.10;;;9.80;;
12603;SDS011;6367;52.508;13.284;2022-12-10T08:58:38;15.03;;;10.13;;
12603;SDS011;6367;52.508;13.284;2022-12-10T09:01:11;11.73;;;10.37;;
12603;SDS011;6367;52.508;13.284;2022-12-10T09:03:39;13.97;;;9.40;;
12603;SDS011;6367;52.508;13.284;2022-12-10T09:06:05;11.53;;;9.93;;
12603;SDS011;6367;52.508;13.284;2022-12-10T09:08:33;12.67;;;10.83;;
12603;SDS011;6367;52.508;13.284;2022-12-10T09:11:09;10.13;;;9.10;;
12603;SDS011;6367;52.508;13.284;2022-12-10T09:13:37;11.47;;;10.07;;
12603;SDS011;6367;52.508;13.284;2022-12-10T09:16:03;13.73;;;11.30;;
12603;SDS011;6367;52.508;13.284;2022-12-10T09:18:30;13.90;;;11.43;;
12603;SDS011;6367;52.508;13.284;2022-12-10T09:20:55;13.90;;;11.30;;
12603;SDS011;6367;52.508;13.284;2022-12-10T09:23:21;12.60;;;9.67;;
12603;SDS011;6367;52.508;13.284;2022-12-10T09:25:47;9.60;;;8.30;;
12603;SDS011;6367;52.508;13.284;2022-12-10T09:28:13;11.83;;;9.83;;
12603;SDS011;6367;52.508;13.284;2022-12-10T09:30:38;14.23;;;11.57;;
12603;SDS011;6367;52.508;13.284;2022-12-10T09:33:04;9.10;;;8.13;;
12603;SDS011;6367;52.508;13.284;2022-12-10T09:35:30;11.90;;;10.00;;
12603;SDS011;6367;52.508;13.284;2022-12-10T09:37:55;12.37;;;9.70;;
12603;SDS011;6367;52.508;13.284;2022-12-10T09:40:25;12.93;;;10.17;;
12603;SDS011;6367;52.508;13.284;2022-12-10T09:43:09;10.83;;;9.67;;
12603;SDS011;6367;52.508;13.284;2022-12-10T09:48:32;12.63;;;9.97;;
12603;SDS011;6367;52.508;13.284;2022-12-10T09:51:20;12.33;;;9.83;;
12603;SDS011;6367;52.508;13.284;2022-12-10T09:53:49;10.83;;;9.47;;
12603;SDS011;6367;52.508;13.284;2022-12-10T09:56:23;13.00;;;10.57;;
12603;SDS011;6367;52.508;13.284;2022-12-10T09:58:53;13.97;;;11.27;;
12603;SDS011;6367;52.508;13.284;2022-12-10T10:01:19;11.77;;;9.37;;
12603;SDS011;6367;52.508;13.284;2022-12-10T10:03:49;12.77;;;10.47;;
12603;SDS011;6367;52.508;13.284;2022-12-10T10:06:15;13.87;;;10.97;;
12603;SDS011;6367;52.508;13.284;2022-12-10T10:08:42;14.33;;;10.57;;
12603;SDS011;6367;52.508;13.284;2022-12-10T10:11:12;15.00;;;10.93;;
12603;SDS011;6367;52.508;13.284;2022-12-10T10:13:45;12.10;;;10.23;;
12603;SDS011;6367;52.508;13.284;2022-12-10T10:16:37;12.70;;;9.63;;
12603;SDS011;6367;52.508;13.284;2022-12-10T10:19:14;12.20;;;10.63;;
12603;SDS011;6367;52.508;13.284;2022-12-10T10:21:43;12.17;;;10.00;;
12603;SDS011;6367;52.508;13.284;2022-12-10T10:24:15;13.17;;;10.13;;
12603;SDS011;6367;52.508;13.284;2022-12-10T10:26:44;12.97;;;10.13;;
12603;SDS011;6367;52.508;13.284;2022-12-10T10:29:11;11.93;;;8.73;;
12603;SDS011;6367;52.508;13.284;2022-12-10T10:31:41;12.57;;;10.30;;
12603;SDS011;6367;52.508;13.284;2022-12-10T10:34:18;14.40;;;10.20;;
12603;SDS011;6367;52.508;13.284;2022-12-10T10:36:45;12.47;;;10.27;;
12603;SDS011;6367;52.508;13.284;2022-12-10T10:41:43;10.43;;;9.33;;
12603;SDS011;6367;52.508;13.284;2022-12-10T10:44:18;14.30;;;10.00;;
12603;SDS011;6367;52.508;13.284;2022-12-10T10:46:46;11.20;;;9.20;;
12603;SDS011;6367;52.508;13.284;2022-12-10T10:49:22;13.13;;;10.07;;
12603;SDS011;6367;52.508;13.284;2022-12-10T10:52:00;12.57;;;9.30;;
12603;SDS011;6367;52.508;13.284;2022-12-10T10:57:04;12.90;;;9.57;;
12603;SDS011;6367;52.508;13.284;2022-12-10T10:59:37;12.13;;;9.00;;
12603;SDS011;6367;52.508;13.284;2022-12-10T11:02:04;13.40;;;10.23;;
12603;SDS011;6367;52.508;13.284;2022-12-10T11:04:46;11.53;;;10.10;;
12603;SDS011;6367;52.508;13.284;2022-12-10T11:07:19;11.00;;;9.50;;
12603;SDS011;6367;52.508;13.284;2022-12-10T11:09:48;11.60;;;9.97;;
12603;SDS011;6367;52.508;13.284;2022-12-10T11:12:53;12.37;;;10.73;;
12603;SDS011;6367;52.508;13.284;2022-12-10T11:17:48;10.27;;;9.20;;
12603;SDS011;6367;52.508;13.284;2022-12-10T11:20:17;12.83;;;10.00;;
12603;SDS011;6367;52.508;13.284;2022-12-10T11:22:50;11.10;;;9.90;;
12603;SDS011;6367;52.508;13.284;2022-12-10T11:25:17;10.80;;;9.70;;
12603;SDS011;6367;52.508;13.284;2022-12-10T11:27:55;11.80;;;9.53;;
12603;SDS011;6367;52.508;13.284;2022-12-10T11:30:26;13.00;;;10.20;;
12603;SDS011;6367;52.508;13.284;2022-12-10T11:36:15;11.03;;;9.00;;
12603;SDS011;6367;52.508;13.284;2022-12-10T11:42:04;13.77;;;10.70;;
12603;SDS011;6367;52.508;13.284;2022-12-10T11:44:40;12.63;;;11.30;;
12603;SDS011;6367;52.508;13.284;2022-12-10T11:49:42;12.80;;;11.10;;
12603;SDS011;6367;52.508;13.284;2022-12-10T11:55:32;12.70;;;10.63;;
12603;SDS011;6367;52.508;13.284;2022-12-10T12:03:50;13.43;;;11.27;;
12603;SDS011;6367;52.508;13.284;2022-12-10T12:09:00;15.33;;;11.50;;
12603;SDS011;6367;52.508;13.284;2022-12-10T12:14:28;14.37;;;11.20;;
12603;SDS011;6367;52.508;13.284;2022-12-10T12:17:16;14.53;;;11.17;;
12603;SDS011;6367;52.508;13.284;2022-12-10T12:19:53;12.93;;;10.43;;
12603;SDS011;6367;52.508;13.284;2022-12-10T12:22:26;14.10;;;11.30;;
12603;SDS011;6367;52.508;13.284;2022-12-10T12:25:05;13.77;;;11.33;;
12603;SDS011;6367;52.508;13.284;2022-12-10T12:27:48;13.07;;;9.80;;
12603;SDS011;6367;52.508;13.284;2022-12-10T12:30:18;13.73;;;11.83;;
12603;SDS011;6367;52.508;13.284;2022-12-10T12:32:50;15.77;;;11.80;;
12603;SDS011;6367;52.508;13.284;2022-12-10T12:35:32;18.00;;;12.53;;
12603;SDS011;6367;52.508;13.284;2022-12-10T12:38:25;17.00;;;13.17;;
12603;SDS011;6367;52.508;13.284;2022-12-10T12:43:38;15.30;;;12.20;;
12603;SDS011;6367;52.508;13.284;2022-12-10T12:46:18;16.40;;;12.60;;
12603;SDS011;6367;52.508;13.284;2022-12-10T12:48:51;16.17;;;12.30;;
12603;SDS011;6367;52.508;13.284;2022-12-10T12:53:46;14.07;;;10.87;;
12603;SDS011;6367;52.508;13.284;2022-12-10T12:56:23;13.37;;;11.23;;
12603;SDS011;6367;52.508;13.284;2022-12-10T13:01:46;15.33;;;12.07;;
12603;SDS011;6367;52.508;13.284;2022-12-10T13:04:12;15.50;;;12.73;;
12603;SDS011;6367;52.508;13.284;2022-12-10T13:06:40;15.87;;;12.90;;
12603;SDS011;6367;52.508;13.284;2022-12-10T13:11:38;13.87;;;11.00;;
12603;SDS011;6367;52.508;13.284;2022-12-10T13:35:15;17.80;;;13.20;;
12603;SDS011;6367;52.508;13.284;2022-12-10T13:37:38;16.43;;;12.53;;
12603;SDS011;6367;52.508;13.284;2022-12-10T13:48:52;15.77;;;11.40;;
12603;SDS011;6367;52.508;13.284;2022-12-10T13:56:53;16.50;;;12.70;;
12603;SDS011;6367;52.508;13.284;2022-12-10T14:07:18;19.23;;;12.40;;
12603;SDS011;6367;52.508;13.284;2022-12-10T14:09:51;18.90;;;12.37;;
12603;SDS011;6367;52.508;13.284;2022-12-10T14:12:29;17.13;;;13.73;;
12603;SDS011;6367;52.508;13.284;2022-12-10T14:15:03;15.07;;;11.30;;
12603;SDS011;6367;52.508;13.284;2022-12-10T14:17:37;18.70;;;13.00;;
12603;SDS011;6367;52.508;13.284;2022-12-10T14:20:06;18.03;;;13.33;;
12603;SDS011;6367;52.508;13.284;2022-12-10T14:22:34;20.80;;;13.73;;
12603;SDS011;6367;52.508;13.284;2022-12-10T14:25:05;17.83;;;12.60;;
12603;SDS011;6367;52.508;13.284;2022-12-10T14:27:37;18.87;;;12.77;;
12603;SDS011;6367;52.508;13.284;2022-12-10T14:30:04;19.33;;;12.60;;
12603;SDS011;6367;52.508;13.284;2022-12-10T14:32:41;19.37;;;13.03;;
12603;SDS011;6367;52.508;13.284;2022-12-10T14:35:12;22.13;;;13.20;;
12603;SDS011;6367;52.508;13.284;2022-12-10T14:37:40;21.37;;;14.13;;
12603;SDS011;6367;52.508;13.284;2022-12-10T14:40:09;19.90;;;12.00;;
12603;SDS011;6367;52.508;13.284;2022-12-10T14:42:46;21.50;;;13.97;;
12603;SDS011;6367;52.508;13.284;2022-12-10T14:45:13;19.47;;;12.53;;
12603;SDS011;6367;52.508;13.284;2022-12-10T14:47:40;18.77;;;12.90;;
12603;SDS011;6367;52.508;13.284;2022-12-10T14:50:13;21.60;;;13.27;;
12603;SDS011;6367;52.508;13.284;2022-12-10T14:52:42;19.03;;;12.27;;
12603;SDS011;6367;52.508;13.284;2022-12-10T14:55:17;18.00;;;12.87;;
12603;SDS011;6367;52.508;13.284;2022-12-10T14:57:54;21.50;;;13.27;;
12603;SDS011;6367;52.508;13.284;2022-12-10T15:00:26;18.97;;;11.93;;
12603;SDS011;6367;52.508;13.284;2022-12-10T15:02:57;19.77;;;12.90;;
12603;SDS011;6367;52.508;13.284;2022-12-10T15:05:31;22.33;;;13.97;;
12603;SDS011;6367;52.508;13.284;2022-12-10T15:08:00;17.77;;;11.10;;
12603;SDS011;6367;52.508;13.284;2022-12-10T15:10:34;18.80;;;11.90;;
12603;SDS011;6367;52.508;13.284;2022-12-10T15:13:05;18.90;;;12.40;;
12603;SDS011;6367;52.508;13.284;2022-12-10T15:18:03;19.77;;;12.40;;
12603;SDS011;6367;52.508;13.284;2022-12-10T15:20:36;19.90;;;12.73;;
12603;SDS011;6367;52.508;13.284;2022-12-10T15:23:16;25.67;;;12.30;;
12603;SDS011;6367;52.508;13.284;2022-12-10T15:25:46;20.67;;;12.37;;
12603;SDS011;6367;52.508;13.284;2022-12-10T15:28:29;19.73;;;12.40;;
12603;SDS011;6367;52.508;13.284;2022-12-10T15:31:11;20.37;;;13.13;;
12603;SDS011;6367;52.508;13.284;2022-12-10T15:33:48;20.70;;;12.40;;
12603;SDS011;6367;52.508;13.284;2022-12-10T15:36:31;25.13;;;13.17;;
12603;SDS011;6367;52.508;13.284;2022-12-10T15:39:15;20.73;;;12.67;;
12603;SDS011;6367;52.508;13.284;2022-12-10T15:41:53;20.17;;;13.13;;
12603;SDS011;6367;52.508;13.284;2022-12-10T15:46:49;22.30;;;12.40;;
12603;SDS011;6367;52.508;13.284;2022-12-10T15:49:16;22.53;;;13.10;;
12603;SDS011;6367;52.508;13.284;2022-12-10T15:51:42;23.10;;;12.97;;
12603;SDS011;6367;52.508;13.284;2022-12-10T15:57:18;24.47;;;13.03;;
12603;SDS011;6367;52.508;13.284;2022-12-10T15:59:45;19.30;;;12.63;;
12603;SDS011;6367;52.508;13.284;2022-12-10T16:02:26;27.07;;;15.93;;
12603;SDS011;6367;52.508;13.284;2022-12-10T16:05:16;23.63;;;14.03;;
12603;SDS011;6367;52.508;13.284;2022-12-10T16:07:48;22.37;;;13.50;;
12603;SDS011;6367;52.508;13.284;2022-12-10T16:10:16;23.33;;;13.90;;
12603;SDS011;6367;52.508;13.284;2022-12-10T16:12:44;26.13;;;12.50;;
12603;SDS011;6367;52.508;13.284;2022-12-10T16:15:21;21.90;;;11.90;;
12603;SDS011;6367;52.508;13.284;2022-12-10T16:17:52;19.40;;;12.60;;
12603;SDS011;6367;52.508;13.284;2022-12-10T16:20:20;27.10;;;12.60;;
12603;SDS011;6367;52.508;13.284;2022-12-10T16:22:54;19.90;;;12.17;;
12603;SDS011;6367;52.508;13.284;2022-12-10T16:25:21;26.33;;;13.13;;
12603;SDS011;6367;52.508;13.284;2022-12-10T16:27:48;24.00;;;13.10;;
12603;SDS011;6367;52.508;13.284;2022-12-10T16:30:16;26.80;;;13.93;;
12603;SDS011;6367;52.508;13.284;2022-12-10T16:32:46;23.73;;;13.40;;
12603;SDS011;6367;52.508;13.284;2022-12-10T16:35:12;24.60;;;13.90;;